Time;durP1;ratioP1;P1;durP2;ratioP2;P2;SDS_P1;SDS_P2;PMS_P1;PMS_P2;Temp;Humidity;BMP_temperature;BMP_pressure;BME280_temperature;BME280_humidity;BME280_pressure;Samples;Min_cycle;Max_cycle;Signal;HPM_P1;HPM_P2
2022/02/18 00:01:07;;;;;;;7.45;2.20;;;8.70;67.70;;;8.01;51.54;94391.88;6105368;23;20197;-84
2022/02/18 00:03:37;;;;;;;4.53;2.40;;;8.80;67.80;;;8.00;51.52;94385.03;6106981;23;20181;-84
2022/02/18 00:06:06;;;;;;;9.18;2.40;;;8.70;67.70;;;7.92;51.49;94384.38;6154849;23;20270;-84
2022/02/18 00:08:35;;;;;;;5.72;1.70;;;8.70;67.80;;;7.94;51.38;94391.00;6107326;23;20256;-84
2022/02/18 00:11:04;;;;;;;6.03;2.05;;;8.70;67.80;;;7.93;51.70;94399.84;6131292;23;20267;-84
2022/02/18 00:13:33;;;;;;;4.45;1.80;;;8.80;68.10;;;7.94;51.98;94405.88;6107212;23;20228;-84
2022/02/18 00:16:01;;;;;;;4.32;1.92;;;8.70;68.00;;;7.92;51.72;94400.03;6130820;23;20648;-84
2022/02/18 00:18:28;;;;;;;7.13;2.38;;;8.70;68.10;;;7.90;51.89;94402.00;6131433;23;20181;-84
2022/02/18 00:20:58;;;;;;;5.25;2.33;;;8.70;68.20;;;7.88;52.14;94409.25;6107421;23;20202;-83
2022/02/18 00:23:26;;;;;;;8.60;2.50;;;8.60;68.20;;;7.86;52.23;94401.59;6130890;23;20180;-83
2022/02/18 00:25:53;;;;;;;7.50;2.53;;;8.70;68.30;;;7.85;51.95;94406.00;6130255;23;20197;-85
2022/02/18 00:28:22;;;;;;;9.90;2.20;;;8.60;68.30;;;7.83;52.44;94407.19;6131490;23;20188;-84
2022/02/18 00:30:50;;;;;;;7.22;2.20;;;8.60;68.40;;;7.81;52.64;94401.34;6107331;23;20201;-84
2022/02/18 00:33:19;;;;;;;6.68;2.20;;;8.60;68.50;;;7.80;52.68;94399.72;6131294;23;20181;-84
2022/02/18 00:35:48;;;;;;;10.18;2.53;;;8.50;68.50;;;7.80;52.60;94415.38;6130504;23;20256;-84
2022/02/18 00:38:16;;;;;;;6.80;2.38;;;8.50;68.60;;;7.77;52.71;94413.97;6082527;23;20188;-84
2022/02/18 00:40:45;;;;;;;12.40;2.80;;;8.50;68.60;;;7.81;52.74;94435.28;6131415;23;20196;-85
2022/02/18 00:43:14;;;;;;;8.85;2.45;;;8.50;68.70;;;7.80;52.88;94420.59;6130041;23;20484;-83
2022/02/18 00:45:41;;;;;;;6.75;2.13;;;8.50;68.80;;;7.80;52.95;94428.44;6106866;23;20220;-85
2022/02/18 00:48:09;;;;;;;6.03;2.63;;;8.50;68.80;;;7.79;52.80;94435.47;6131484;23;20237;-85
2022/02/18 00:50:36;;;;;;;8.55;2.53;;;8.50;68.80;;;7.79;53.18;94440.69;6106669;23;20201;-84
2022/02/18 00:53:06;;;;;;;9.57;2.70;;;8.60;68.90;;;7.82;52.87;94442.13;6107407;23;20486;-84
2022/02/18 00:55:35;;;;;;;9.30;2.90;;;8.50;68.90;;;7.81;52.79;94446.53;6131131;23;20212;-84
2022/02/18 00:58:02;;;;;;;6.85;2.67;;;8.50;68.90;;;7.81;52.76;94436.09;6131238;23;20177;-84
2022/02/18 01:00:29;;;;;;;9.30;2.50;;;8.50;68.80;;;7.83;52.81;94434.09;6106069;23;20531;-84
2022/02/18 01:02:57;;;;;;;8.32;2.33;;;8.50;68.80;;;7.84;52.53;94455.81;6130776;23;20201;-84
2022/02/18 01:05:24;;;;;;;15.48;3.13;;;8.60;68.80;;;7.80;52.36;94439.69;6129149;23;20193;-83
2022/02/18 01:07:51;;;;;;;9.90;2.80;;;8.50;68.70;;;7.87;52.18;94452.81;6082859;23;20213;-85
2022/02/18 01:10:19;;;;;;;13.02;2.97;;;8.50;68.60;;;7.84;52.08;94450.59;6131076;23;20186;-84
2022/02/18 01:12:46;;;;;;;10.00;2.53;;;8.50;68.50;;;7.90;51.79;94452.44;6106440;23;20244;-84
2022/02/18 01:15:13;;;;;;;6.63;2.20;;;8.50;68.50;;;7.94;51.92;94465.94;6105745;23;20252;-84
2022/02/18 01:17:42;;;;;;;4.85;2.25;;;8.50;68.30;;;7.93;51.36;94452.06;6130458;23;20181;-85
2022/02/18 01:20:11;;;;;;;9.25;2.63;;;8.60;68.00;;;7.92;51.19;94453.09;6106115;23;20529;-84
2022/02/18 01:22:38;;;;;;;5.75;2.50;;;8.60;68.00;;;7.97;50.95;94449.88;6131334;23;20173;-85
2022/02/18 01:25:09;;;;;;;5.70;2.15;;;8.60;67.70;;;7.98;50.90;94465.38;6106190;23;20227;-84
2022/02/18 01:27:41;;;;;;;7.75;2.58;;;8.60;67.60;;;7.99;49.51;94464.38;6106860;23;20178;-84
2022/02/18 01:30:10;;;;;;;7.55;1.95;;;8.60;66.70;;;8.01;49.46;94453.75;6130222;23;20208;-84
2022/02/18 01:32:38;;;;;;;6.53;1.92;;;8.60;66.70;;;8.05;49.55;94459.41;6130668;23;20260;-83
2022/02/18 01:35:07;;;;;;;5.55;1.90;;;8.60;66.50;;;8.03;48.70;94467.41;6130185;23;20284;-83
2022/02/18 01:37:35;;;;;;;4.70;2.10;;;8.60;66.00;;;8.01;47.87;94472.84;6105798;23;20177;-84
2022/02/18 01:40:03;;;;;;;7.88;2.55;;;8.70;65.70;;;8.08;47.12;94464.25;6129395;23;20201;-84
2022/02/18 01:42:30;;;;;;;4.78;2.00;;;8.60;65.50;;;8.09;47.72;94474.53;6106268;23;20621;-84
2022/02/18 01:44:57;;;;;;;6.90;2.13;;;8.70;65.60;;;8.07;47.24;94471.28;6106251;23;20620;-84
2022/02/18 01:47:25;;;;;;;5.25;1.90;;;8.70;65.10;;;8.07;46.84;94471.28;6105812;23;20178;-84
2022/02/18 01:49:54;;;;;;;4.75;2.10;;;8.70;65.20;;;8.15;47.37;94472.97;6130488;23;20260;-84
2022/02/18 01:52:29;;;;;;;5.35;2.13;;;8.70;65.30;;;8.18;48.14;94480.44;6106285;23;20243;-83
2022/02/18 01:54:57;;;;;;;7.18;2.35;;;8.80;65.40;;;8.16;47.95;94469.34;6106555;23;20193;-84
2022/02/18 01:57:25;;;;;;;7.18;2.13;;;8.80;65.70;;;8.16;48.17;94471.97;6105637;23;20220;-83
2022/02/18 01:59:53;;;;;;;6.03;2.17;;;8.80;65.70;;;8.16;48.62;94461.50;6130011;23;20582;-85
2022/02/18 02:02:20;;;;;;;8.90;2.20;;;8.80;65.90;;;8.15;48.69;94471.16;6130354;23;20240;-84
2022/02/18 02:04:48;;;;;;;7.65;2.40;;;8.90;66.00;;;8.14;48.42;94464.31;6154816;23;20189;-84
2022/02/18 02:07:23;;;;;;;7.97;2.60;;;8.80;66.00;;;8.16;49.01;94471.97;6106816;23;20201;-84
2022/02/18 02:09:52;;;;;;;6.97;2.20;;;8.80;66.00;;;8.17;48.99;94468.38;6131426;23;20193;-84
2022/02/18 02:12:19;;;;;;;5.07;2.42;;;8.80;66.10;;;8.17;48.80;94470.97;6105411;23;20681;-84
2022/02/18 02:14:51;;;;;;;5.95;2.30;;;8.80;66.10;;;8.15;49.06;94444.22;6129747;23;20197;-84
2022/02/18 02:17:24;;;;;;;3.40;2.00;;;8.90;66.20;;;8.17;48.59;94477.00;6106488;23;20173;-84
2022/02/18 02:19:51;;;;;;;5.78;2.17;;;8.80;65.60;;;8.17;48.60;94479.59;6106217;23;20204;-85
2022/02/18 02:22:27;;;;;;;4.38;1.95;;;8.80;65.70;;;8.18;48.70;94477.81;6106319;23;20178;-84
2022/02/18 02:24:55;;;;;;;5.85;2.10;;;8.80;65.70;;;8.15;47.70;94483.41;6105334;23;20287;-83
2022/02/18 02:27:29;;;;;;;8.30;2.30;;;8.80;65.30;;;8.14;47.03;94487.84;6107032;23;20173;-84
2022/02/18 02:30:04;;;;;;;5.35;2.10;;;8.80;64.80;;;8.14;47.53;94490.44;6106434;23;20591;-84
2022/02/18 02:32:32;;;;;;;6.22;1.90;;;8.80;65.10;;;8.17;47.71;94491.88;6105841;23;20215;-84
2022/02/18 02:34:59;;;;;;;7.45;2.58;;;8.80;65.40;;;8.13;47.37;94488.00;6105294;23;20204;-85
2022/02/18 02:37:26;;;;;;;6.63;2.13;;;8.80;65.30;;;8.03;48.38;94462.19;6105474;23;20204;-85
2022/02/18 02:39:53;;;;;;;6.75;2.08;;;8.80;65.70;;;7.95;48.88;94467.56;6106104;23;20248;-85
2022/02/18 02:42:30;;;;;;;6.28;2.17;;;8.70;65.90;;;7.83;49.22;94472.47;6108056;23;20290;-84
2022/02/18 02:45:05;;;;;;;5.57;2.10;;;8.70;65.90;;;7.73;49.16;94466.75;6084858;23;20197;-83
2022/02/18 02:47:33;;;;;;;4.50;1.75;;;8.60;66.00;;;7.65;49.36;94470.25;6130281;23;20551;-84
2022/02/18 02:50:14;;;;;;;8.20;2.30;;;8.60;66.10;;;7.57;49.36;94478.19;6108429;23;20201;-84
2022/02/18 02:52:41;;;;;;;5.40;2.10;;;8.40;65.90;;;7.52;49.44;94484.78;6154852;23;20200;-85
2022/02/18 02:55:13;;;;;;;5.03;2.00;;;8.40;66.10;;;7.52;49.68;94490.00;6105241;23;20197;-84
2022/02/18 02:57:43;;;;;;;4.80;1.90;;;8.30;66.20;;;7.49;49.62;94479.13;6106193;23;20676;-84
2022/02/18 03:00:13;;;;;;;7.50;1.80;;;8.30;66.40;;;7.51;49.78;94477.16;6130121;23;20247;-83
2022/02/18 03:02:42;;;;;;;7.20;1.75;;;8.30;66.50;;;7.53;49.57;94482.97;6105255;23;20613;-84
2022/02/18 03:05:11;;;;;;;4.78;1.80;;;8.30;66.50;;;7.53;49.90;94489.00;6105412;23;20644;-84
2022/02/18 03:07:40;;;;;;;5.05;1.70;;;8.30;66.60;;;7.53;49.88;94481.19;6105904;23;20178;-85
2022/02/18 03:10:16;;;;;;;5.72;2.03;;;8.30;66.60;;;7.55;50.04;94486.22;6106953;23;20828;-84
2022/02/18 03:12:45;;;;;;;5.88;2.22;;;8.40;66.80;;;7.55;50.23;94477.59;6129769;23;20236;-84
2022/02/18 03:15:13;;;;;;;5.40;2.00;;;8.30;66.80;;;7.57;50.34;94480.81;6130142;23;20251;-83
2022/02/18 03:17:44;;;;;;;4.00;1.80;;;8.30;66.90;;;7.59;50.29;94474.44;6106812;23;20181;-85
2022/02/18 03:20:21;;;;;;;4.65;1.77;;;8.30;66.90;;;7.62;50.25;94484.50;6106349;23;20256;-85
2022/02/18 03:22:50;;;;;;;4.57;1.77;;;8.30;66.90;;;7.61;50.28;94482.06;6106217;23;20185;-86
2022/02/18 03:25:17;;;;;;;6.00;1.90;;;8.30;67.00;;;7.62;50.73;94478.47;6105399;23;20197;-84
2022/02/18 03:27:46;;;;;;;5.78;2.03;;;8.30;67.10;;;7.61;50.87;94482.06;6105938;23;20177;-84
2022/02/18 03:30:19;;;;;;;6.88;2.00;;;8.30;67.10;;;7.58;50.76;94477.22;6108496;23;20257;-84
2022/02/18 03:32:47;;;;;;;6.18;2.10;;;8.30;67.20;;;7.60;50.58;94483.84;6129750;23;20546;-84
2022/02/18 03:35:22;;;;;;;5.85;1.85;;;8.30;67.20;;;7.57;50.84;94489.47;6106726;23;20204;-84
2022/02/18 03:37:50;;;;;;;5.72;2.25;;;8.30;67.30;;;7.56;51.13;94482.63;6104948;23;20771;-84
2022/02/18 03:40:32;;;;;;;5.38;1.70;;;8.30;67.40;;;7.51;50.88;94484.97;6107641;23;20193;-83
2022/02/18 03:43:00;;;;;;;8.20;2.35;;;8.30;67.40;;;7.49;51.07;94492.16;6128773;23;20185;-84
2022/02/18 03:45:36;;;;;;;3.67;2.00;;;8.30;67.50;;;7.46;51.24;94503.78;6129551;23;20667;-84
2022/02/18 03:48:09;;;;;;;7.57;2.05;;;8.20;67.50;;;7.39;51.35;94499.50;6105669;23;20181;-84
2022/02/18 03:50:44;;;;;;;4.50;1.90;;;8.20;67.60;;;7.37;51.57;94494.44;6084667;23;20231;-84
2022/02/18 03:53:11;;;;;;;7.25;2.15;;;8.20;67.60;;;7.35;51.60;94501.66;6129540;23;20209;-83
2022/02/18 03:55:52;;;;;;;3.38;1.90;;;8.10;67.70;;;7.29;51.76;94497.16;6107907;23;20217;-83
2022/02/18 03:58:19;;;;;;;4.63;1.80;;;8.10;67.70;;;7.26;51.41;94497.50;6129304;23;20174;-83
2022/02/18 04:00:47;;;;;;;6.22;1.80;;;8.10;67.80;;;7.20;51.85;94491.22;6129023;23;20189;-84
2022/02/18 04:03:14;;;;;;;5.65;2.58;;;8.00;67.90;;;7.19;51.97;94500.03;6080714;23;20236;-84
2022/02/18 04:06:00;;;;;;;4.47;1.80;;;8.00;68.00;;;7.13;51.98;94498.13;6155105;23;20200;-83
2022/02/18 04:08:34;;;;;;;6.85;1.98;;;8.10;68.10;;;7.11;51.96;94492.31;6105002;23;20183;-83
2022/02/18 04:11:02;;;;;;;3.97;1.80;;;7.90;68.00;;;7.07;52.10;94488.41;6104808;23;20201;-83
2022/02/18 04:13:29;;;;;;;3.42;1.80;;;7.90;68.10;;;7.04;51.85;94492.22;6128775;23;20256;-83
2022/02/18 04:15:56;;;;;;;5.93;1.88;;;7.90;68.10;;;6.98;52.11;94492.94;6129315;23;20225;-83
2022/02/18 04:18:25;;;;;;;5.20;1.80;;;7.80;68.00;;;6.95;52.35;94498.50;6128566;23;20185;-82
2022/02/18 04:20:56;;;;;;;4.45;1.80;;;7.80;68.20;;;6.92;52.30;94499.69;6082974;23;20200;-83
2022/02/18 04:23:49;;;;;;;3.85;1.70;;;7.80;68.20;;;6.89;52.14;94495.63;6114718;23;20174;-83
2022/02/18 04:26:16;;;;;;;4.25;1.77;;;7.70;68.30;;;6.89;51.81;94500.81;6128665;23;20203;-83
2022/02/18 04:28:43;;;;;;;7.13;1.98;;;7.70;68.40;;;6.86;52.19;94496.00;6129012;23;20209;-83
2022/02/18 04:31:10;;;;;;;5.90;1.85;;;7.70;68.50;;;6.86;52.38;94508.19;6104717;23;20607;-83
2022/02/18 04:33:40;;;;;;;4.68;1.73;;;7.60;68.50;;;6.84;52.79;94503.16;6129621;23;20228;-82
2022/02/18 04:36:07;;;;;;;5.85;2.00;;;7.60;68.60;;;6.83;52.63;94508.56;6104430;23;20201;-83
2022/02/18 04:38:35;;;;;;;6.85;1.85;;;7.60;68.60;;;6.81;52.74;94505.31;6105077;23;20170;-84
2022/02/18 04:41:02;;;;;;;5.55;2.05;;;7.60;68.70;;;6.73;52.81;94493.97;6104451;23;20652;-83
2022/02/18 04:43:29;;;;;;;6.45;2.22;;;7.60;68.80;;;6.78;53.13;94498.66;6104125;23;20642;-83
2022/02/18 04:45:57;;;;;;;5.60;1.75;;;7.60;68.90;;;6.77;52.85;94481.41;6129021;23;20683;-83
2022/02/18 04:48:24;;;;;;;4.40;1.95;;;7.70;69.00;;;6.79;52.92;94486.47;6105896;23;20609;-84
2022/02/18 04:50:51;;;;;;;7.35;2.08;;;7.60;69.00;;;6.72;52.86;94483.75;6156545;23;20252;-84
2022/02/18 04:53:36;;;;;;;5.50;1.90;;;7.60;69.00;;;6.77;53.01;94506.69;6110149;23;20232;-84
2022/02/18 04:56:05;;;;;;;5.78;2.05;;;7.50;69.00;;;6.75;53.29;94491.22;6131451;23;20532;-83
2022/02/18 04:58:32;;;;;;;3.40;1.77;;;7.50;69.10;;;6.76;53.15;94492.03;6130400;23;20188;-82
2022/02/18 05:00:59;;;;;;;5.13;1.80;;;7.50;69.10;;;6.76;52.83;94487.59;6103215;23;20248;-82
2022/02/18 05:03:28;;;;;;;6.72;2.20;;;7.50;69.20;;;6.75;53.24;94482.56;6128746;23;20176;-83
2022/02/18 05:05:55;;;;;;;4.65;2.03;;;7.50;69.30;;;6.68;53.82;94498.94;6103507;23;20207;-84
2022/02/18 05:08:24;;;;;;;7.30;2.63;;;7.50;69.70;;;6.68;54.04;94472.88;6103890;23;20196;-83
2022/02/18 05:10:52;;;;;;;6.38;2.05;;;7.50;69.70;;;6.66;54.12;94497.50;6126767;23;20197;-85
2022/02/18 05:13:19;;;;;;;5.50;2.00;;;7.40;69.70;;;6.64;54.12;94497.69;6102679;23;20541;-82
2022/02/18 05:15:47;;;;;;;7.15;2.75;;;7.50;69.70;;;6.62;54.03;94485.81;6102722;23;20284;-83
2022/02/18 05:18:14;;;;;;;7.20;2.20;;;7.40;69.70;;;6.66;54.19;94485.25;6103221;23;20244;-84
2022/02/18 05:20:42;;;;;;;5.32;2.22;;;7.40;69.80;;;6.64;54.41;94469.00;6126939;23;20249;-82
2022/02/18 05:23:11;;;;;;;7.50;2.28;;;7.40;69.90;;;6.67;54.44;94473.06;6127083;23;20386;-84
2022/02/18 05:25:38;;;;;;;5.28;2.10;;;7.40;69.90;;;6.66;54.44;94472.22;6127008;23;20193;-83
2022/02/18 05:28:07;;;;;;;4.00;2.08;;;7.40;70.00;;;6.64;54.38;94483.81;6103187;23;20181;-82
2022/02/18 05:30:34;;;;;;;8.88;2.17;;;7.40;69.80;;;6.63;54.41;94493.44;6127790;23;20399;-82
2022/02/18 05:33:02;;;;;;;10.35;2.30;;;7.40;69.90;;;6.60;54.58;94470.34;6103211;23;20202;-82
2022/02/18 05:35:30;;;;;;;6.93;2.72;;;7.40;70.00;;;6.58;54.71;94459.31;6101923;23;20731;-83
2022/02/18 05:37:57;;;;;;;11.35;2.40;;;7.40;70.00;;;6.56;54.59;94480.31;6102514;23;20208;-82
2022/02/18 05:40:25;;;;;;;3.45;2.00;;;7.40;70.00;;;6.52;54.67;94465.22;6103014;23;20196;-82
2022/02/18 05:42:52;;;;;;;8.10;2.67;;;7.40;69.90;;;6.53;54.89;94467.66;6102687;23;20268;-82
2022/02/18 05:45:22;;;;;;;8.05;2.10;;;7.40;70.00;;;6.51;54.84;94463.59;6127253;23;20541;-82
2022/02/18 05:47:51;;;;;;;8.60;2.35;;;7.30;69.90;;;6.53;54.90;94480.69;6130247;23;20176;-83
2022/02/18 05:50:18;;;;;;;6.25;2.20;;;7.30;70.00;;;6.53;54.58;94479.84;6130129;23;20671;-83
2022/02/18 05:52:46;;;;;;;8.38;2.28;;;7.30;69.90;;;6.53;54.77;94488.50;6105185;23;20497;-83
2022/02/18 05:55:13;;;;;;;6.72;1.92;;;7.30;69.90;;;6.54;54.28;94478.88;6130052;23;20589;-83
2022/02/18 05:57:41;;;;;;;8.57;2.45;;;7.40;70.00;;;6.52;54.53;94468.63;6105628;23;20177;-83
2022/02/18 06:00:09;;;;;;;7.65;2.10;;;7.30;69.90;;;6.49;54.27;94468.97;6105224;23;20228;-82
2022/02/18 06:02:42;;;;;;;6.97;2.55;;;7.30;69.90;;;6.52;54.35;94471.22;6128688;23;20506;-83
2022/02/18 06:05:10;;;;;;;6.55;2.30;;;7.30;69.90;;;6.53;54.17;94470.25;6129436;23;20189;-83
2022/02/18 06:07:42;;;;;;;5.32;2.17;;;7.30;69.90;;;6.53;54.49;94469.44;6153046;23;20173;-82
2022/02/18 06:10:09;;;;;;;6.18;2.25;;;7.30;70.00;;;6.56;54.02;94477.69;6102979;23;20193;-83
2022/02/18 06:12:37;;;;;;;5.70;2.30;;;7.30;70.00;;;6.53;54.58;94483.28;6079608;23;20208;-84
2022/02/18 06:15:05;;;;;;;7.40;2.15;;;7.30;70.00;;;6.61;54.21;94489.41;6104544;23;20240;-83
2022/02/18 06:17:32;;;;;;;6.18;2.63;;;7.30;69.90;;;6.62;54.34;94496.25;6105127;23;20730;-83
2022/02/18 06:19:59;;;;;;;6.28;2.30;;;7.30;70.00;;;6.63;54.17;94490.00;6081201;23;20204;-82
2022/02/18 06:22:29;;;;;;;7.07;2.28;;;7.30;70.00;;;6.65;53.96;94490.66;6129638;23;20272;-83
2022/02/18 06:24:56;;;;;;;6.15;2.20;;;7.40;70.10;;;6.69;54.19;94494.53;6102112;23;20205;-83
2022/02/18 06:27:24;;;;;;;9.38;2.33;;;7.30;70.00;;;6.75;54.22;94496.44;6102421;23;20604;-83
2022/02/18 06:29:51;;;;;;;6.30;2.25;;;7.40;70.10;;;6.77;54.43;94489.22;6104328;23;20284;-83
2022/02/18 06:32:19;;;;;;;8.90;2.25;;;7.40;70.20;;;6.80;54.28;94499.31;6104388;23;20189;-84
2022/02/18 06:34:46;;;;;;;6.15;2.33;;;7.50;70.20;;;6.81;54.04;94487.06;6129261;23;20193;-82
2022/02/18 06:37:14;;;;;;;8.35;2.70;;;7.50;70.20;;;6.89;53.95;94505.25;6129533;23;20489;-82
2022/02/18 06:39:41;;;;;;;11.63;3.17;;;7.50;70.20;;;6.91;54.44;94492.84;6105174;23;20197;-82
2022/02/18 06:42:10;;;;;;;7.45;2.38;;;7.50;70.30;;;6.96;54.41;94502.75;6105981;23;20201;-83
2022/02/18 06:44:37;;;;;;;9.07;2.50;;;7.50;70.20;;;6.96;54.50;94506.16;6154347;23;20185;-82
2022/02/18 06:47:05;;;;;;;12.73;2.85;;;7.60;70.30;;;7.03;54.10;94508.84;6126345;23;20243;-83
2022/02/18 06:49:32;;;;;;;8.43;2.70;;;7.60;70.40;;;7.08;54.42;94505.69;6079368;23;20201;-84
2022/02/18 06:52:00;;;;;;;12.30;3.20;;;7.60;70.30;;;7.12;54.17;94502.56;6152189;23;20180;-83
2022/02/18 06:54:31;;;;;;;8.50;3.03;;;7.70;70.30;;;7.17;54.39;94502.00;6101000;23;20267;-82
2022/02/18 06:57:01;;;;;;;9.15;2.60;;;7.80;70.50;;;7.19;54.21;94516.50;6127145;23;20188;-82
2022/02/18 06:59:30;;;;;;;11.20;2.80;;;7.70;70.30;;;7.24;54.41;94526.38;6102938;23;20201;-83
2022/02/18 07:01:57;;;;;;;12.10;2.90;;;7.80;70.50;;;7.30;54.52;94523.06;6102375;23;20178;-82
2022/02/18 07:04:25;;;;;;;9.57;2.88;;;7.80;70.50;;;7.36;54.60;94505.84;6150670;23;20276;-84
2022/02/18 07:06:52;;;;;;;13.88;3.00;;;7.90;70.60;;;7.42;54.52;94512.16;6128569;23;20181;-83
2022/02/18 07:09:20;;;;;;;7.75;2.72;;;7.90;70.60;;;7.44;54.37;94518.81;6102197;23;20574;-83
2022/02/18 07:11:47;;;;;;;16.38;3.63;;;8.00;70.70;;;7.52;54.97;94531.75;6125934;23;20177;-83
2022/02/18 07:14:15;;;;;;;14.77;4.03;;;8.00;70.80;;;7.61;54.53;94521.22;6126233;23;20287;-83
2022/02/18 07:16:43;;;;;;;11.43;3.33;;;8.10;70.90;;;7.68;54.45;94509.84;6126354;23;20184;-83
2022/02/18 07:19:13;;;;;;;13.73;3.78;;;8.10;70.80;;;7.74;54.88;94513.53;6126248;23;20212;-83
2022/02/18 07:21:41;;;;;;;11.55;3.08;;;8.20;70.90;;;7.83;54.63;94495.97;6103484;23;20628;-83
2022/02/18 07:24:09;;;;;;;11.30;3.33;;;8.30;70.90;;;7.90;54.48;94496.84;6126526;23;20201;-83
2022/02/18 07:26:37;;;;;;;12.45;3.75;;;8.40;70.90;;;7.95;54.47;94502.31;6126239;23;20212;-84
2022/02/18 07:29:05;;;;;;;11.65;3.30;;;8.40;70.90;;;8.01;54.41;94511.22;6101467;23;20193;-83
2022/02/18 07:31:33;;;;;;;11.82;3.22;;;8.40;70.70;;;8.06;54.55;94508.84;6126394;23;20200;-84
2022/02/18 07:34:00;;;;;;;14.02;3.42;;;8.50;70.70;;;8.08;54.36;94506.88;6126282;23;20302;-83
2022/02/18 07:36:27;;;;;;;15.88;3.50;;;8.50;70.70;;;8.18;54.87;94519.63;6128927;23;20229;-83
2022/02/18 07:38:54;;;;;;;11.05;3.67;;;8.60;70.70;;;8.23;54.40;94509.41;6127049;23;20177;-81
2022/02/18 07:41:21;;;;;;;11.00;2.88;;;8.70;70.90;;;8.30;54.37;94515.50;6103280;23;20213;-83
2022/02/18 07:43:48;;;;;;;11.40;3.53;;;8.80;70.90;;;8.35;54.36;94514.94;6078731;23;20179;-83
2022/02/18 07:46:17;;;;;;;14.90;3.60;;;8.80;70.70;;;8.39;54.19;94508.34;6102464;23;20205;-83
2022/02/18 07:48:44;;;;;;;10.48;3.30;;;8.80;70.60;;;8.50;54.23;94520.13;6101968;23;20660;-82
2022/02/18 07:51:11;;;;;;;15.82;3.72;;;8.90;70.60;;;8.56;54.11;94514.16;6126238;23;20193;-82
2022/02/18 07:53:39;;;;;;;13.55;3.83;;;8.90;70.50;;;8.59;53.89;94520.78;6126184;23;20272;-82
2022/02/18 07:56:06;;;;;;;13.95;3.38;;;9.00;70.50;;;8.63;53.69;94520.22;6102318;23;20193;-83
2022/02/18 07:58:33;;;;;;;15.90;3.60;;;9.10;70.40;;;8.64;53.73;94507.97;6126389;23;20581;-83
2022/02/18 08:01:00;;;;;;;15.23;3.67;;;9.10;70.20;;;8.70;53.49;94514.25;6126415;23;20189;-83
2022/02/18 08:03:28;;;;;;;11.50;3.08;;;9.20;70.20;;;8.77;53.61;94515.09;6102326;23;20205;-84
2022/02/18 08:05:58;;;;;;;11.52;3.78;;;9.30;71.20;;;8.84;53.51;94505.50;6128359;23;20267;-84
2022/02/18 08:08:25;;;;;;;18.23;3.95;;;9.30;70.30;;;8.98;53.47;94501.16;6150787;23;20563;-83
2022/02/18 08:10:52;;;;;;;12.52;3.40;;;9.30;70.30;;;9.15;53.48;94495.63;6126420;23;20632;-84
2022/02/18 08:13:20;;;;;;;15.30;3.70;;;9.40;70.60;;;9.27;53.22;94497.50;6102708;23;20284;-83
2022/02/18 08:15:47;;;;;;;17.25;4.18;;;9.50;70.50;;;9.38;52.70;94497.97;6102433;23;20209;-83
2022/02/18 08:18:20;;;;;;;11.25;3.30;;;9.60;70.20;;;9.48;52.88;94503.63;6127193;23;20173;-83
2022/02/18 08:20:49;;;;;;;16.52;4.15;;;9.70;70.20;;;9.52;52.02;94502.25;6101654;23;20201;-84
2022/02/18 08:23:16;;;;;;;16.05;3.95;;;9.80;69.80;;;9.59;52.36;94495.25;6102416;23;20177;-84
2022/02/18 08:25:43;;;;;;;11.60;3.28;;;9.80;69.80;;;9.65;52.29;94490.22;6104322;23;20255;-83
2022/02/18 08:28:11;;;;;;;14.40;3.38;;;10.00;68.60;;;9.75;52.27;94488.00;6106274;23;20176;-84
2022/02/18 08:30:42;;;;;;;13.18;3.65;;;10.00;68.50;;;9.78;52.39;94490.25;6129979;23;20216;-84
2022/02/18 08:33:09;;;;;;;12.57;3.67;;;10.10;68.40;;;9.84;52.44;94494.69;6104642;23;20196;-84
2022/02/18 08:35:37;;;;;;;11.60;3.30;;;10.10;68.30;;;9.89;52.14;94486.25;6128049;23;20271;-83
2022/02/18 08:38:05;;;;;;;12.57;4.30;;;10.20;68.20;;;9.96;51.80;94488.88;6104995;23;20231;-83
2022/02/18 08:40:34;;;;;;;14.35;4.03;;;10.30;68.10;;;9.97;51.85;94472.16;6129187;23;20205;-83
2022/02/18 08:43:03;;;;;;;14.23;3.17;;;10.30;67.90;;;10.02;51.57;94480.22;6104569;23;20244;-83
2022/02/18 08:45:31;;;;;;;12.88;3.55;;;10.40;67.90;;;10.06;51.51;94474.41;6103811;23;20263;-83
2022/02/18 08:47:58;;;;;;;9.95;3.20;;;10.40;67.80;;;10.12;51.40;94478.03;6104097;23;20224;-84
2022/02/18 08:50:26;;;;;;;13.10;3.28;;;10.50;67.70;;;10.17;51.40;94493.97;6129270;23;20193;-84
2022/02/18 08:52:54;;;;;;;14.75;3.70;;;10.50;67.70;;;10.23;51.25;94495.78;6130358;23;20180;-82
2022/02/18 08:55:22;;;;;;;12.02;3.40;;;10.60;67.80;;;10.36;51.39;94491.56;6127459;23;20284;-83
2022/02/18 08:57:51;;;;;;;10.73;3.30;;;10.60;67.80;;;10.40;51.49;94477.88;6105129;23;20181;-83
2022/02/18 09:00:18;;;;;;;15.23;3.60;;;10.70;68.70;;;10.51;50.66;94489.59;6128539;23;20263;-83
2022/02/18 09:02:46;;;;;;;12.43;3.60;;;10.70;67.50;;;10.55;51.05;94484.75;6128744;23;20317;-83
2022/02/18 09:05:14;;;;;;;14.70;3.75;;;10.80;67.70;;;10.65;50.65;94473.84;6130487;23;20193;-83
2022/02/18 09:07:44;;;;;;;10.07;3.67;;;10.80;67.60;;;10.74;50.32;94477.88;6106419;23;20188;-83
2022/02/18 09:10:12;;;;;;;13.75;4.20;;;10.90;67.50;;;10.80;50.21;94463.13;6105823;23;20660;-83
2022/02/18 09:12:41;;;;;;;17.75;3.72;;;11.00;67.30;;;10.87;50.10;94462.09;6130989;23;20176;-84
2022/02/18 09:15:11;;;;;;;10.65;3.42;;;11.10;67.40;;;11.00;50.21;94476.25;6130847;23;20200;-84
2022/02/18 09:17:51;;;;;;;10.13;3.10;;;11.10;67.30;;;11.11;50.05;94457.22;6129971;23;20185;-83
2022/02/18 09:20:18;;;;;;;10.65;3.55;;;11.20;67.50;;;11.21;49.45;94441.03;6105206;23;20197;-83
2022/02/18 09:22:45;;;;;;;11.32;3.85;;;11.30;67.20;;;11.27;49.18;94466.47;6105951;23;20183;-83
2022/02/18 09:25:12;;;;;;;14.68;3.60;;;11.40;66.90;;;11.35;49.11;94468.03;6106396;23;20244;-84
2022/02/18 09:27:40;;;;;;;9.57;3.47;;;11.40;66.90;;;11.46;49.42;94470.03;6107154;23;20185;-84
2022/02/18 09:30:10;;;;;;;14.82;3.40;;;11.60;67.00;;;11.51;48.87;94470.22;6130447;23;20212;-84
2022/02/18 09:32:39;;;;;;;15.48;4.10;;;11.60;66.50;;;11.57;48.64;94457.25;6108293;23;20169;-84
2022/02/18 09:35:10;;;;;;;9.43;2.83;;;11.70;66.50;;;11.63;48.76;94456.41;6106931;23;20205;-84
2022/02/18 09:37:39;;;;;;;15.07;3.30;;;11.80;66.60;;;11.70;48.89;94454.56;6105300;23;20180;-84
2022/02/18 09:40:08;;;;;;;10.23;3.38;;;11.80;66.40;;;11.74;48.54;94458.38;6130354;23;20188;-83
2022/02/18 09:42:40;;;;;;;12.35;3.85;;;11.90;66.40;;;11.79;47.78;94457.75;6106538;23;20197;-83
2022/02/18 09:45:09;;;;;;;12.23;3.65;;;12.00;65.80;;;11.77;47.91;94447.47;6129450;23;20200;-82
2022/02/18 09:47:39;;;;;;;12.07;3.72;;;12.00;65.50;;;11.75;47.60;94438.97;6130215;23;20169;-83
2022/02/18 09:50:07;;;;;;;12.02;3.78;;;12.00;65.60;;;11.79;48.17;94442.00;6081976;23;20228;-83
2022/02/18 09:52:36;;;;;;;17.30;3.92;;;12.00;65.80;;;11.83;47.59;94443.19;6106153;23;20669;-83
2022/02/18 09:55:05;;;;;;;15.98;3.80;;;12.10;65.50;;;11.85;47.50;94447.22;6129542;23;20220;-83
2022/02/18 09:57:35;;;;;;;11.52;3.60;;;12.10;65.20;;;11.90;47.20;94451.03;6130692;23;20190;-83
2022/02/18 10:00:22;;;;;;;12.93;3.88;;;12.20;65.40;;;11.95;47.63;94427.53;6133151;23;20193;-83
2022/02/18 10:02:51;;;;;;;13.48;3.53;;;12.10;65.40;;;12.01;47.62;94427.53;6106201;23;20272;-85
2022/02/18 10:05:18;;;;;;;11.80;3.53;;;12.20;65.60;;;12.05;48.06;94409.53;6105606;23;20193;-83
2022/02/18 10:08:11;;;;;;;10.70;3.33;;;12.30;65.80;;;12.20;48.27;94411.84;6106617;23;20616;-84
2022/02/18 10:10:42;;;;;;;10.88;3.08;;;12.30;65.50;;;12.27;47.54;94403.91;6130344;23;20196;-83
2022/02/18 10:13:29;;;;;;;10.63;3.25;;;12.40;65.60;;;12.41;47.93;94401.97;6130703;23;20176;-84
2022/02/18 10:15:58;;;;;;;12.50;3.63;;;12.50;65.70;;;12.49;47.50;94388.53;6105573;23;20200;-84
2022/02/18 10:18:26;;;;;;;11.13;3.40;;;12.60;65.70;;;12.59;47.78;94388.84;6130897;23;20204;-84
2022/02/18 10:20:54;;;;;;;11.10;3.60;;;12.60;65.70;;;12.70;48.16;94378.63;6130221;23;20203;-85
2022/02/18 10:23:22;;;;;;;9.48;3.03;;;12.70;66.00;;;12.84;48.17;94381.91;6105705;23;20173;-83
2022/02/18 10:25:52;;;;;;;10.38;2.90;;;12.80;66.20;;;12.97;48.54;94379.97;6130407;23;20196;-83
2022/02/18 10:28:21;;;;;;;12.40;3.22;;;13.00;66.10;;;13.11;48.15;94382.44;6106600;23;20207;-84
2022/02/18 10:31:01;;;;;;;11.23;2.90;;;13.00;66.10;;;13.20;48.17;94386.38;6129821;23;20196;-84
2022/02/18 10:33:28;;;;;;;11.60;3.30;;;13.20;65.80;;;13.26;47.33;94389.97;6130148;23;20231;-83
2022/02/18 10:36:01;;;;;;;10.80;3.38;;;13.20;65.70;;;13.27;46.98;94373.13;6106257;23;20193;-84